Leesburg, FL (34748)

10:34 AM EDT on April 01, 2015 (GMT -0400)
Cypress Creek | | Change Station
CLOSE
Current Station
Personal Weather Station
Location: Leesburg, FL
Elevation: 82 ft
Nearby Weather Stations

Elev 82 ft 28.77 °N, 81.88 °W | Updated 4 seconds ago

Partly Cloudy
Partly Cloudy
74.5 °F
Feels Like 75 °F
N
3.6
Wind Variable Wind from WSW
Gusts 4.9 mph

Today
High -- | Low -- °F
--% Chance of Precip.
Yesterday
High -- | Low -- °F
Precip. -- in
7:17 AM 7:45 PM
Waxing Gibbous, 93% visible
Pressure 30.15 in
Visibility 10.0 miles
Clouds Few 3800 ft
Heat Index 75 °F
Dew Point 68 °F
Humidity 79%
Rainfall 0.00 in
Snow Depth Not available.
UV 4 out of 12
Pollen 10.60 out of 12
Air Quality Not available.
Flu Activity Not available.
METAR KLEE 011353Z 27011KT 10SM FEW038 22/18 A3015 RMK AO2 SLP209 T02170183

More Conditions Fewer Conditions

Pressure 30.15 in
Visibility 10.0 miles
Clouds Few 3800 ft
Heat Index 75 °F
Dew Point 68 °F
Humidity 79%
Rainfall 0.00 in
Snow Depth Not available.
UV 4 out of 12
Pollen 10.60 out of 12
Air Quality Not available.
Flu Activity Not available.
METAR KLEE 011353Z 27011KT 10SM FEW038 22/18 A3015 RMK AO2 SLP209 T02170183

More Conditions Fewer Conditions

Nowcast | as of 8:31 am EDT on April 1, 2015

sunny skies... Weak high pressure will provide sunny skies across east central Florida this morning. Temperatures will climb into the lower to middle 80s this afternoon. Light and variable winds will become generally west at 5 to 10 mph by late morning. Additional details...including graphics are available online at: http://www.Srh.NOAA.Gov/mlb/blog.Php

×

10-Day Weather Forecast

Almanac

Astronomy

Apr. 01, 2015 Rise Set
Actual Time
Civil Twilight
Nautical Twilight
Astronomical Twilight
Moon
Length of Visible Light
Length of Day
Tomorrow will be .
, % of the Moon is Illuminated

Today's Extremes

State Highs State Lows

Community

WunderPhotos

Upload Photos

1,809,963 photos uploaded!

WunderBlogs® & News

Nearby

Air Quality

  Air Quality AQ Index Pollutant
Not available.

Snow Depth

Station Depth Elevation

Earthquake Activity

City Distance Mag. Time & Date
Minimum magnitude displayed is 2.5.

Coastal Water Temperatures

Place Temperature

Stations

Nearby Weather Stations

Station Location Temp. Windchill Dew Point Humidity Wind Precip. Elev Updated Type